Danville Regional Airport
KDAN : now visible

Airfield :











YOU CAN JOIN US ON...

 
LOGIN :

Register | Disclaimer

   EN    FR    IT 

 









Legend :    VFR   Marginal VFR   IFR   Intensive IFR   Very Intensive IFR
Visi :
Ceiling :
>= 8 km
>= 3000ft
5 to 8 km
1000 to 3000 ft
1500m to 5 km
500 to 1000 ft
800 to 1500m
200 to 500 ft
< 800m
< 200 ft
Symbols :   Thunderstorms  Fog  Heavy snow  Heavy precipitations  Wind > 20 kt







- Airport Elevation : 571 ft
- IATA code : DAN


KDAN - Danville Regional

CURRENT METAR :
  • 212053Z AUTO 23005KT 10SM FEW060 32/16 A3018 RMK AO2 SLP209 T03220156 56019

EXPIRED METARs :
  • 211953Z AUTO VRB05KT 10SM SCT060 SCT080 32/15 A3019 RMK AO2 SLP214 T03220150
  • 211853Z AUTO 00000KT 10SM FEW055 31/16 A3021 RMK AO2 SLP222 T03060156

TAF KDAN
Valid from the 21 at 18:00 until the 22 at 18:00 UTC


211732Z 2118/2218 VRB03KT P6SM VCSH SCT050
FM220200 VRB03KT P6SM SCT060
No reported NOTAMs for that airfield.



MET'MAP, your aeronautical weather chart ! - Copyright ORBIFLY December 2007 - Disclaimer

ORBIFLY MET'MAP TEAM :

Programming & Development : Alexandra Zaïnal
Concept & Development : Baudouin d'Aumeries
Co-Development & Prog : Marc-Olivier Méhu
Technical & hardware support : Manuel Goepfert

Contact : metmap@orbifly.com




SOURCES & CREDITS :

   NOAA       Earth
Advisory